Time;durP1;ratioP1;P1;durP2;ratioP2;P2;SDS_P1;SDS_P2;PMS_P1;PMS_P2;Temp;Humidity;BMP_temperature;BMP_pressure;BME280_temperature;BME280_humidity;BME280_pressure;Samples;Min_cycle;Max_cycle;Signal;HPM_P1;HPM_P2
2024/04/02 00:01:18;;;;;;;;;;;23.40;52.30;;;;;;5080723;28;19993;-44
2024/04/02 00:03:44;;;;;;;;;;;23.40;52.30;;;;;;5079821;28;19928;-50
2024/04/02 00:06:10;;;;;;;;;;;23.40;52.40;;;;;;5075855;28;19912;-46
2024/04/02 00:08:37;;;;;;;;;;;23.40;52.30;;;;;;5077043;28;19919;-46
2024/04/02 00:11:03;;;;;;;;;;;23.40;52.40;;;;;;5076059;28;19912;-46
2024/04/02 00:13:29;;;;;;;;;;;23.40;52.40;;;;;;5078665;28;19979;-50
2024/04/02 00:15:55;;;;;;;;;;;23.40;52.40;;;;;;5081047;28;19969;-47
2024/04/02 00:18:21;;;;;;;;;;;23.40;52.30;;;;;;5081120;28;20466;-48
2024/04/02 00:20:47;;;;;;;;;;;23.30;52.20;;;;;;5077836;28;19918;-44
2024/04/02 00:23:13;;;;;;;;;;;23.40;52.30;;;;;;5077669;28;19916;-46
2024/04/02 00:25:39;;;;;;;;;;;23.30;52.20;;;;;;5076303;28;19927;-44
2024/04/02 00:28:05;;;;;;;;;;;23.40;52.40;;;;;;5074300;28;20794;-45
2024/04/02 00:30:32;;;;;;;;;;;23.40;52.40;;;;;;5066470;28;20007;-44
2024/04/02 00:32:58;;;;;;;;;;;23.40;52.40;;;;;;5071558;28;19908;-44
2024/04/02 00:35:24;;;;;;;;;;;23.30;52.30;;;;;;5066894;28;19939;-46
2024/04/02 00:37:50;;;;;;;;;;;23.40;52.40;;;;;;5069069;28;19913;-46
2024/04/02 00:40:16;;;;;;;;;;;23.30;52.40;;;;;;5072400;28;19935;-48
2024/04/02 00:42:43;;;;;;;;;;;23.40;52.40;;;;;;5071429;28;19917;-48
2024/04/02 00:45:09;;;;;;;;;;;23.30;52.30;;;;;;5063535;28;20400;-45
2024/04/02 00:47:35;;;;;;;;;;;23.30;52.30;;;;;;5069585;28;20233;-45
2024/04/02 00:50:01;;;;;;;;;;;23.30;52.30;;;;;;5081890;28;19954;-46
2024/04/02 00:52:27;;;;;;;;;;;23.30;52.20;;;;;;5076906;28;20031;-47
2024/04/02 00:54:55;;;;;;;;;;;23.30;52.30;;;;;;5068817;28;19975;-45
2024/04/02 00:57:23;;;;;;;;;;;23.30;52.20;;;;;;5074879;28;19909;-44
2024/04/02 00:59:52;;;;;;;;;;;23.30;52.30;;;;;;5075508;28;19913;-44
2024/04/02 01:02:18;;;;;;;;;;;23.30;52.40;;;;;;5073117;28;19920;-48
2024/04/02 01:04:47;;;;;;;;;;;23.30;52.40;;;;;;5071235;28;19975;-46
2024/04/02 01:07:15;;;;;;;;;;;23.30;52.30;;;;;;5073535;28;19926;-46
2024/04/02 01:09:42;;;;;;;;;;;23.30;52.40;;;;;;5065106;28;19913;-44
2024/04/02 01:12:12;;;;;;;;;;;23.30;52.40;;;;;;5078520;28;19912;-47
2024/04/02 01:14:39;;;;;;;;;;;23.30;52.30;;;;;;5074479;28;20578;-45
2024/04/02 01:17:07;;;;;;;;;;;23.30;52.40;;;;;;5074353;28;19913;-46
2024/04/02 01:19:33;;;;;;;;;;;23.30;52.30;;;;;;5079818;28;19928;-47
2024/04/02 01:21:59;;;;;;;;;;;23.30;52.20;;;;;;5074235;28;19966;-48
2024/04/02 01:24:26;;;;;;;;;;;23.30;52.30;;;;;;5070461;28;19920;-50
2024/04/02 01:26:52;;;;;;;;;;;23.30;52.20;;;;;;5076217;28;19912;-47
2024/04/02 01:29:21;;;;;;;;;;;23.20;52.20;;;;;;5077388;28;19909;-46
2024/04/02 01:31:47;;;;;;;;;;;23.20;52.30;;;;;;5071214;28;19913;-46
2024/04/02 01:34:13;;;;;;;;;;;23.20;52.40;;;;;;5065547;28;19976;-47
2024/04/02 01:36:39;;;;;;;;;;;23.20;52.90;;;;;;5080393;28;19908;-49
2024/04/02 01:39:07;;;;;;;;;;;23.20;52.40;;;;;;5067928;28;19912;-46
2024/04/02 01:41:33;;;;;;;;;;;23.20;52.40;;;;;;5077117;28;19928;-47
2024/04/02 01:44:02;;;;;;;;;;;23.20;52.40;;;;;;5069783;28;19924;-47
2024/04/02 01:46:29;;;;;;;;;;;23.20;52.40;;;;;;5072197;28;19917;-46
2024/04/02 01:48:56;;;;;;;;;;;23.20;52.40;;;;;;5081146;28;19912;-46
2024/04/02 01:51:23;;;;;;;;;;;23.20;52.40;;;;;;5063006;28;20038;-45
2024/04/02 01:53:49;;;;;;;;;;;23.20;52.20;;;;;;5064683;28;19913;-46
2024/04/02 01:56:19;;;;;;;;;;;23.20;52.20;;;;;;5069835;28;19919;-47
2024/04/02 01:58:45;;;;;;;;;;;23.10;52.20;;;;;;5075110;28;19953;-49
2024/04/02 02:01:11;;;;;;;;;;;23.10;52.20;;;;;;5078933;28;19919;-46
2024/04/02 02:03:38;;;;;;;;;;;23.20;52.30;;;;;;5071786;28;19924;-44
2024/04/02 02:06:04;;;;;;;;;;;23.20;52.30;;;;;;5064155;28;19920;-46
2024/04/02 02:08:31;;;;;;;;;;;23.10;52.30;;;;;;5072107;28;19916;-46
2024/04/02 02:11:03;;;;;;;;;;;23.10;52.40;;;;;;5063520;28;19948;-47
2024/04/02 02:13:30;;;;;;;;;;;23.10;52.40;;;;;;5063132;28;20023;-46
2024/04/02 02:15:59;;;;;;;;;;;23.10;52.40;;;;;;5062192;28;20351;-45
2024/04/02 02:18:26;;;;;;;;;;;23.10;52.40;;;;;;5070354;28;19927;-45
2024/04/02 02:20:51;;;;;;;;;;;23.10;52.40;;;;;;5074446;28;19916;-46
2024/04/02 02:23:19;;;;;;;;;;;23.10;52.30;;;;;;5065086;28;19917;-47
2024/04/02 02:25:45;;;;;;;;;;;23.10;52.20;;;;;;5065508;28;19931;-48
2024/04/02 02:28:11;;;;;;;;;;;23.10;52.20;;;;;;5067227;28;19920;-46
2024/04/02 02:30:39;;;;;;;;;;;23.10;52.20;;;;;;5079294;28;19908;-50
2024/04/02 02:33:06;;;;;;;;;;;23.10;52.20;;;;;;5075856;28;19933;-48
2024/04/02 02:35:32;;;;;;;;;;;23.10;52.30;;;;;;5068518;28;19963;-46
2024/04/02 02:38:04;;;;;;;;;;;23.00;52.30;;;;;;5077852;28;19912;-48
2024/04/02 02:40:35;;;;;;;;;;;23.00;52.30;;;;;;5067816;28;19914;-50
2024/04/02 02:43:01;;;;;;;;;;;23.00;52.30;;;;;;5066856;28;19921;-50
2024/04/02 02:45:27;;;;;;;;;;;23.00;52.30;;;;;;5080787;28;19951;-48
2024/04/02 02:47:54;;;;;;;;;;;23.00;52.30;;;;;;5073802;28;19917;-49
2024/04/02 02:50:20;;;;;;;;;;;23.00;52.30;;;;;;5074395;28;19919;-50
2024/04/02 02:52:49;;;;;;;;;;;23.00;52.30;;;;;;5076642;28;20677;-52
2024/04/02 02:55:15;;;;;;;;;;;23.00;52.30;;;;;;5068391;28;19915;-51
2024/04/02 02:57:41;;;;;;;;;;;23.00;52.30;;;;;;5076458;28;19919;-47
2024/04/02 03:00:08;;;;;;;;;;;23.00;52.30;;;;;;5076353;28;19912;-50
2024/04/02 03:02:37;;;;;;;;;;;23.00;52.20;;;;;;5074614;28;19928;-50
2024/04/02 03:05:03;;;;;;;;;;;23.00;52.20;;;;;;5079628;28;19908;-51
2024/04/02 03:07:29;;;;;;;;;;;22.90;52.10;;;;;;5081444;28;19944;-50
2024/04/02 03:09:55;;;;;;;;;;;23.00;52.30;;;;;;5071476;28;20289;-50
2024/04/02 03:12:21;;;;;;;;;;;22.90;52.30;;;;;;5073215;28;19908;-50
2024/04/02 03:14:47;;;;;;;;;;;22.90;52.30;;;;;;5073383;28;20352;-52
2024/04/02 03:17:14;;;;;;;;;;;22.90;52.30;;;;;;5073189;28;19912;-48
2024/04/02 03:19:41;;;;;;;;;;;22.90;52.30;;;;;;5076235;28;19947;-50
2024/04/02 03:22:07;;;;;;;;;;;22.90;52.30;;;;;;5076137;28;20292;-49
2024/04/02 03:24:33;;;;;;;;;;;22.90;52.30;;;;;;5079683;28;19912;-50
2024/04/02 03:26:59;;;;;;;;;;;22.90;52.20;;;;;;5072887;28;19940;-47
2024/04/02 03:29:25;;;;;;;;;;;22.90;52.20;;;;;;5081122;28;19927;-50
2024/04/02 03:31:51;;;;;;;;;;;22.90;52.10;;;;;;5082705;28;19913;-49
2024/04/02 03:34:17;;;;;;;;;;;22.90;52.10;;;;;;5081787;28;20258;-50
2024/04/02 03:36:43;;;;;;;;;;;22.80;52.00;;;;;;5082171;28;19930;-50
2024/04/02 03:39:09;;;;;;;;;;;22.90;52.10;;;;;;5073315;28;19909;-46
2024/04/02 03:41:36;;;;;;;;;;;22.80;52.10;;;;;;5082017;28;19912;-48
2024/04/02 03:44:02;;;;;;;;;;;22.80;52.10;;;;;;5081317;28;19983;-49
2024/04/02 03:46:28;;;;;;;;;;;22.80;52.10;;;;;;5075740;28;20579;-49
2024/04/02 03:48:55;;;;;;;;;;;22.80;52.10;;;;;;5071428;28;19916;-48
2024/04/02 03:51:21;;;;;;;;;;;22.80;52.10;;;;;;5072557;28;19912;-47
2024/04/02 03:53:47;;;;;;;;;;;22.80;52.10;;;;;;5073129;28;19947;-50
2024/04/02 03:56:13;;;;;;;;;;;22.80;52.10;;;;;;5078590;28;20327;-51
2024/04/02 03:58:38;;;;;;;;;;;22.80;52.10;;;;;;5081831;28;19912;-47
2024/04/02 04:01:05;;;;;;;;;;;22.80;52.10;;;;;;5072057;28;19929;-47
2024/04/02 04:03:31;;;;;;;;;;;22.80;52.10;;;;;;5073562;28;20421;-46
2024/04/02 04:05:58;;;;;;;;;;;22.80;52.10;;;;;;5082036;28;19915;-46
2024/04/02 04:08:25;;;;;;;;;;;22.80;52.10;;;;;;5080883;28;19958;-46
2024/04/02 04:10:51;;;;;;;;;;;22.80;52.10;;;;;;5071163;28;19920;-47
2024/04/02 04:13:17;;;;;;;;;;;22.80;52.10;;;;;;5064560;28;19913;-45
2024/04/02 04:15:49;;;;;;;;;;;22.70;52.00;;;;;;5071083;28;20473;-45
2024/04/02 04:18:15;;;;;;;;;;;22.70;52.10;;;;;;5078812;28;19935;-44
2024/04/02 04:20:41;;;;;;;;;;;22.70;52.10;;;;;;5074961;28;19912;-45
2024/04/02 04:23:07;;;;;;;;;;;22.70;52.00;;;;;;5081851;28;19921;-44
2024/04/02 04:25:33;;;;;;;;;;;22.70;52.10;;;;;;5076931;28;19934;-46
2024/04/02 04:27:59;;;;;;;;;;;22.70;52.10;;;;;;5076044;28;19912;-47
2024/04/02 04:30:24;;;;;;;;;;;22.70;52.10;;;;;;5079094;28;19980;-47
2024/04/02 04:32:50;;;;;;;;;;;22.70;52.10;;;;;;5081782;28;19912;-48
2024/04/02 04:35:16;;;;;;;;;;;22.70;52.10;;;;;;5066888;28;19908;-48
2024/04/02 04:37:42;;;;;;;;;;;22.70;52.10;;;;;;5074427;28;20026;-46
2024/04/02 04:40:08;;;;;;;;;;;22.70;52.10;;;;;;5074552;28;19973;-47
2024/04/02 04:42:34;;;;;;;;;;;22.70;52.10;;;;;;5080550;28;19924;-47
2024/04/02 04:45:00;;;;;;;;;;;22.70;52.10;;;;;;5080063;28;19916;-47
2024/04/02 04:47:26;;;;;;;;;;;22.70;52.10;;;;;;5078501;28;19913;-47
2024/04/02 04:49:51;;;;;;;;;;;22.60;52.00;;;;;;5069411;28;19909;-44
2024/04/02 04:52:17;;;;;;;;;;;22.60;52.00;;;;;;5077945;28;19919;-50
2024/04/02 04:54:43;;;;;;;;;;;22.60;52.00;;;;;;5077407;28;19912;-49
2024/04/02 04:57:09;;;;;;;;;;;22.60;52.00;;;;;;5080899;28;19915;-46
2024/04/02 04:59:35;;;;;;;;;;;22.60;52.10;;;;;;5073306;28;19913;-49
2024/04/02 05:02:01;;;;;;;;;;;22.60;52.10;;;;;;5081076;28;19912;-45
2024/04/02 05:04:27;;;;;;;;;;;22.60;52.60;;;;;;5080297;28;19999;-47
2024/04/02 05:06:53;;;;;;;;;;;22.60;52.10;;;;;;5079397;28;19912;-50
2024/04/02 05:09:20;;;;;;;;;;;22.60;52.10;;;;;;5074272;28;19919;-47
2024/04/02 05:11:46;;;;;;;;;;;22.60;52.10;;;;;;5072982;28;19913;-47
2024/04/02 05:14:12;;;;;;;;;;;22.60;52.10;;;;;;5080914;28;19987;-47
2024/04/02 05:16:38;;;;;;;;;;;22.60;52.10;;;;;;5080368;28;19913;-52
2024/04/02 05:19:04;;;;;;;;;;;22.50;52.10;;;;;;5074476;28;20427;-52
2024/04/02 05:21:29;;;;;;;;;;;22.50;52.10;;;;;;5080468;28;20069;-45
2024/04/02 05:23:55;;;;;;;;;;;22.50;52.10;;;;;;5069445;28;19920;-50
2024/04/02 05:26:21;;;;;;;;;;;22.50;52.10;;;;;;5071555;28;19912;-51
2024/04/02 05:28:47;;;;;;;;;;;22.50;52.10;;;;;;5076996;28;19913;-49
2024/04/02 05:31:15;;;;;;;;;;;22.50;52.10;;;;;;5077817;28;19912;-52
2024/04/02 05:33:41;;;;;;;;;;;22.50;52.10;;;;;;5080769;28;19912;-47
2024/04/02 05:36:06;;;;;;;;;;;22.50;52.10;;;;;;5080808;28;19915;-50
2024/04/02 05:38:32;;;;;;;;;;;22.50;52.10;;;;;;5071220;28;20011;-50
2024/04/02 05:40:58;;;;;;;;;;;22.40;52.00;;;;;;5075559;28;19931;-45
2024/04/02 05:43:26;;;;;;;;;;;22.50;52.10;;;;;;5079836;28;20388;-45
2024/04/02 05:45:52;;;;;;;;;;;22.40;52.00;;;;;;5080666;28;19917;-50
2024/04/02 05:48:18;;;;;;;;;;;22.40;52.00;;;;;;5071963;28;19972;-46
2024/04/02 05:50:54;;;;;;;;;;;22.40;52.10;;;;;;5080761;28;19913;-44
2024/04/02 05:53:20;;;;;;;;;;;22.40;52.00;;;;;;5073567;28;19955;-47
2024/04/02 05:55:45;;;;;;;;;;;22.40;52.00;;;;;;5078274;28;19916;-49
2024/04/02 05:58:11;;;;;;;;;;;22.40;52.00;;;;;;5079948;28;20011;-52
2024/04/02 06:00:37;;;;;;;;;;;22.40;52.10;;;;;;5082262;28;19923;-44
2024/04/02 06:03:03;;;;;;;;;;;22.40;52.10;;;;;;5076204;28;19917;-48
2024/04/02 06:05:29;;;;;;;;;;;22.40;52.10;;;;;;5068047;28;21869;-49
2024/04/02 06:07:57;;;;;;;;;;;22.40;52.10;;;;;;5079180;28;19954;-45
2024/04/02 06:10:23;;;;;;;;;;;22.30;52.10;;;;;;5077454;28;19912;-49
2024/04/02 06:12:49;;;;;;;;;;;22.30;52.10;;;;;;5084653;28;19965;-45
2024/04/02 06:15:15;;;;;;;;;;;22.30;52.10;;;;;;5077415;28;19913;-47
2024/04/02 06:17:41;;;;;;;;;;;22.30;52.10;;;;;;5069981;28;19912;-45
2024/04/02 06:20:07;;;;;;;;;;;22.30;52.10;;;;;;5084150;28;19919;-49
2024/04/02 06:22:35;;;;;;;;;;;22.30;52.70;;;;;;5081087;28;19921;-49
2024/04/02 06:25:02;;;;;;;;;;;22.30;52.10;;;;;;5076755;28;19913;-47
2024/04/02 06:27:27;;;;;;;;;;;22.30;52.10;;;;;;5082667;28;19934;-45
2024/04/02 06:29:53;;;;;;;;;;;22.20;52.60;;;;;;5076349;28;19912;-48
2024/04/02 06:32:20;;;;;;;;;;;22.20;52.10;;;;;;5082974;28;19912;-47
2024/04/02 06:34:46;;;;;;;;;;;22.20;52.10;;;;;;5083973;28;19919;-48
2024/04/02 06:37:11;;;;;;;;;;;22.20;52.20;;;;;;5083587;28;20280;-49
2024/04/02 06:39:37;;;;;;;;;;;22.20;52.20;;;;;;5077974;28;19912;-44
2024/04/02 06:42:03;;;;;;;;;;;22.20;52.20;;;;;;5066066;28;19915;-47
2024/04/02 06:44:29;;;;;;;;;;;22.20;52.20;;;;;;5075508;28;19983;-48
2024/04/02 06:46:55;;;;;;;;;;;22.20;52.20;;;;;;5084278;28;19940;-46
2024/04/02 06:49:21;;;;;;;;;;;22.20;52.20;;;;;;5084115;28;19912;-49
2024/04/02 06:51:49;;;;;;;;;;;22.20;52.20;;;;;;5078542;28;19947;-46
2024/04/02 06:54:15;;;;;;;;;;;22.10;52.20;;;;;;5063344;28;19913;-44
2024/04/02 06:56:41;;;;;;;;;;;22.10;52.20;;;;;;5073568;28;19935;-45
2024/04/02 06:59:07;;;;;;;;;;;22.10;52.20;;;;;;5065530;28;20659;-50
2024/04/02 07:01:33;;;;;;;;;;;22.10;52.30;;;;;;5070955;28;19913;-46
2024/04/02 07:03:59;;;;;;;;;;;22.10;52.20;;;;;;5071898;28;20011;-49
2024/04/02 07:06:27;;;;;;;;;;;22.10;52.30;;;;;;5074714;28;19919;-47
2024/04/02 07:08:54;;;;;;;;;;;22.10;52.30;;;;;;5073639;28;19951;-48
2024/04/02 07:11:20;;;;;;;;;;;22.10;52.30;;;;;;5073339;28;19935;-45
2024/04/02 07:13:45;;;;;;;;;;;22.00;52.20;;;;;;5072130;28;19912;-45
2024/04/02 07:16:12;;;;;;;;;;;22.00;52.20;;;;;;5078247;28;19908;-46
2024/04/02 07:18:38;;;;;;;;;;;22.00;52.30;;;;;;5072864;28;19925;-46
2024/04/02 07:21:04;;;;;;;;;;;22.00;52.30;;;;;;5077177;28;19916;-45
2024/04/02 07:23:30;;;;;;;;;;;22.00;52.30;;;;;;5073610;28;19924;-44
2024/04/02 07:25:56;;;;;;;;;;;22.00;52.30;;;;;;5071146;28;19919;-48
2024/04/02 07:28:22;;;;;;;;;;;22.00;52.30;;;;;;5074023;28;20027;-44
2024/04/02 07:30:48;;;;;;;;;;;22.00;52.30;;;;;;5065105;28;19915;-49
2024/04/02 07:33:14;;;;;;;;;;;21.90;52.30;;;;;;5068059;28;19920;-46
2024/04/02 07:35:42;;;;;;;;;;;21.90;52.30;;;;;;5065689;28;19912;-47
2024/04/02 07:38:08;;;;;;;;;;;21.90;52.30;;;;;;5070937;28;19940;-46
2024/04/02 07:40:34;;;;;;;;;;;21.90;52.30;;;;;;5065793;28;19924;-45
2024/04/02 07:43:00;;;;;;;;;;;21.90;52.30;;;;;;5065246;28;19921;-48
2024/04/02 07:45:26;;;;;;;;;;;21.90;52.30;;;;;;5073196;28;19967;-48
2024/04/02 07:47:52;;;;;;;;;;;21.90;52.30;;;;;;5069350;28;19912;-48
2024/04/02 07:50:18;;;;;;;;;;;21.90;52.40;;;;;;5067618;28;19944;-48
2024/04/02 07:52:44;;;;;;;;;;;21.90;52.30;;;;;;5066498;28;19916;-45
2024/04/02 07:55:10;;;;;;;;;;;21.90;52.30;;;;;;5072474;28;19964;-47
2024/04/02 07:57:36;;;;;;;;;;;21.90;52.30;;;;;;5074915;28;19912;-46
2024/04/02 08:00:03;;;;;;;;;;;21.80;52.30;;;;;;5082167;28;20496;-44
2024/04/02 08:02:29;;;;;;;;;;;21.80;52.30;;;;;;5071175;28;20032;-44
2024/04/02 08:04:55;;;;;;;;;;;21.80;52.30;;;;;;5072015;28;19916;-44
2024/04/02 08:07:21;;;;;;;;;;;21.80;52.30;;;;;;5072104;28;19921;-46
2024/04/02 08:09:47;;;;;;;;;;;21.80;52.30;;;;;;5064507;28;19909;-45
2024/04/02 08:12:13;;;;;;;;;;;21.80;52.30;;;;;;5065205;28;19973;-45
2024/04/02 08:14:39;;;;;;;;;;;21.80;52.30;;;;;;5071824;28;19912;-48
2024/04/02 08:17:05;;;;;;;;;;;21.80;52.30;;;;;;5064694;28;20000;-45
2024/04/02 08:19:31;;;;;;;;;;;21.80;52.40;;;;;;5064199;28;20588;-45
2024/04/02 08:21:57;;;;;;;;;;;21.80;52.40;;;;;;5071515;28;19931;-47
2024/04/02 08:24:25;;;;;;;;;;;21.70;52.30;;;;;;5072313;28;19942;-46
2024/04/02 08:26:51;;;;;;;;;;;21.70;52.30;;;;;;5070617;28;19920;-46
2024/04/02 08:29:16;;;;;;;;;;;21.70;52.30;;;;;;5071440;28;20317;-45
2024/04/02 08:31:42;;;;;;;;;;;21.70;52.30;;;;;;5071907;28;19915;-46
2024/04/02 08:34:08;;;;;;;;;;;21.70;52.30;;;;;;5075063;28;19912;-44
2024/04/02 08:36:34;;;;;;;;;;;21.70;52.30;;;;;;5080972;28;19963;-45
2024/04/02 08:39:00;;;;;;;;;;;21.70;52.30;;;;;;5076981;28;19927;-46
2024/04/02 08:41:26;;;;;;;;;;;21.70;52.30;;;;;;5079472;28;20377;-47
2024/04/02 08:44:01;;;;;;;;;;;21.70;52.30;;;;;;5070362;28;19923;-48
2024/04/02 08:46:27;;;;;;;;;;;21.70;52.90;;;;;;5072753;28;19921;-48
2024/04/02 08:48:53;;;;;;;;;;;21.70;52.30;;;;;;5075148;28;19914;-45
2024/04/02 08:51:20;;;;;;;;;;;21.70;52.90;;;;;;5078103;28;19980;-45
2024/04/02 08:53:46;;;;;;;;;;;21.70;52.30;;;;;;5077649;28;19963;-47
2024/04/02 08:56:13;;;;;;;;;;;21.70;52.30;;;;;;5077772;28;19963;-51
2024/04/02 08:58:40;;;;;;;;;;;21.70;52.40;;;;;;5072752;28;19967;-45
2024/04/02 09:01:05;;;;;;;;;;;21.70;52.40;;;;;;5078975;28;19986;-46
2024/04/02 09:03:31;;;;;;;;;;;21.60;52.90;;;;;;5079912;28;19929;-44
2024/04/02 09:05:57;;;;;;;;;;;21.60;52.40;;;;;;5076130;28;19915;-46
2024/04/02 09:08:24;;;;;;;;;;;21.60;52.30;;;;;;5071003;28;20281;-50
2024/04/02 09:10:50;;;;;;;;;;;21.60;52.40;;;;;;5063281;28;19919;-48
2024/04/02 09:13:16;;;;;;;;;;;21.60;52.40;;;;;;5070891;28;19912;-44
2024/04/02 09:15:41;;;;;;;;;;;21.60;52.40;;;;;;5081265;28;19940;-45
2024/04/02 09:18:07;;;;;;;;;;;21.60;52.40;;;;;;5081407;28;19983;-45
2024/04/02 09:20:36;;;;;;;;;;;21.60;52.50;;;;;;5072381;28;19931;-47
2024/04/02 09:23:02;;;;;;;;;;;21.60;52.40;;;;;;5070042;28;20080;-45
2024/04/02 09:25:28;;;;;;;;;;;21.60;52.40;;;;;;5079521;28;19915;-44
2024/04/02 09:27:54;;;;;;;;;;;21.60;52.50;;;;;;5081599;28;19912;-45
2024/04/02 09:30:22;;;;;;;;;;;21.60;52.50;;;;;;5073215;28;19919;-44
2024/04/02 09:32:48;;;;;;;;;;;21.60;52.50;;;;;;5073113;28;19908;-45
2024/04/02 09:35:14;;;;;;;;;;;21.60;52.50;;;;;;5082581;28;19931;-45
2024/04/02 09:37:40;;;;;;;;;;;21.60;52.50;;;;;;5100257;28;19963;-46
2024/04/02 09:40:06;;;;;;;;;;;21.60;52.50;;;;;;5082413;28;19919;-48
2024/04/02 09:42:33;;;;;;;;;;;21.60;52.50;;;;;;5074409;28;19917;-44
2024/04/02 09:45:03;;;;;;;;;;;21.60;52.60;;;;;;5084888;28;19927;-44
2024/04/02 09:47:29;;;;;;;;;;;21.60;52.60;;;;;;5069243;28;19912;-46
2024/04/02 09:49:55;;;;;;;;;;;21.60;52.60;;;;;;5084671;28;19935;-46
2024/04/02 09:52:21;;;;;;;;;;;21.50;52.60;;;;;;5077415;28;19909;-45
2024/04/02 09:54:47;;;;;;;;;;;21.60;52.60;;;;;;5079090;28;19919;-45
2024/04/02 09:57:13;;;;;;;;;;;21.50;52.60;;;;;;5074476;28;19913;-47
2024/04/02 09:59:39;;;;;;;;;;;21.50;52.60;;;;;;5076877;28;19927;-47
2024/04/02 10:02:05;;;;;;;;;;;21.60;52.70;;;;;;5081975;28;20093;-49
2024/04/02 10:04:31;;;;;;;;;;;21.50;52.60;;;;;;5075384;28;19926;-44
2024/04/02 10:06:57;;;;;;;;;;;21.50;52.70;;;;;;5084875;28;19944;-46
2024/04/02 10:09:24;;;;;;;;;;;21.50;52.70;;;;;;5084068;28;20351;-46
2024/04/02 10:11:50;;;;;;;;;;;21.50;52.60;;;;;;5084235;28;19918;-47
2024/04/02 10:14:16;;;;;;;;;;;21.50;52.60;;;;;;5083944;28;19912;-44
2024/04/02 10:16:42;;;;;;;;;;;21.50;52.70;;;;;;5085111;28;19953;-45
2024/04/02 10:19:16;;;;;;;;;;;21.50;52.70;;;;;;5071517;28;20591;-46
2024/04/02 10:21:42;;;;;;;;;;;21.50;52.70;;;;;;5078292;28;19908;-46
2024/04/02 10:24:11;;;;;;;;;;;21.50;52.70;;;;;;5085628;28;19916;-45
2024/04/02 10:26:40;;;;;;;;;;;21.50;52.70;;;;;;5084477;28;19918;-47
2024/04/02 10:29:06;;;;;;;;;;;21.50;52.70;;;;;;5085561;28;19919;-47
2024/04/02 10:31:35;;;;;;;;;;;21.50;52.70;;;;;;5077599;28;19913;-51
2024/04/02 10:34:01;;;;;;;;;;;21.50;52.70;;;;;;5076969;28;19917;-45
2024/04/02 10:36:27;;;;;;;;;;;21.50;52.70;;;;;;5076547;28;19915;-47
2024/04/02 10:38:53;;;;;;;;;;;21.50;52.80;;;;;;5077210;28;19912;-48
2024/04/02 10:41:19;;;;;;;;;;;21.50;52.80;;;;;;5085013;28;19912;-51
2024/04/02 10:43:45;;;;;;;;;;;21.50;52.70;;;;;;5085376;28;19926;-47
2024/04/02 10:46:11;;;;;;;;;;;21.50;52.80;;;;;;5084770;28;20354;-50
2024/04/02 10:48:37;;;;;;;;;;;21.50;52.80;;;;;;5074259;28;19912;-46
2024/04/02 10:51:03;;;;;;;;;;;21.40;52.80;;;;;;5073480;28;19909;-51
2024/04/02 10:53:29;;;;;;;;;;;21.50;52.80;;;;;;5076111;28;19912;-48
2024/04/02 10:56:00;;;;;;;;;;;21.40;52.80;;;;;;5077261;28;20411;-48
2024/04/02 10:58:26;;;;;;;;;;;21.40;52.80;;;;;;5078678;28;19920;-47
2024/04/02 11:00:52;;;;;;;;;;;21.40;52.80;;;;;;5066243;28;19909;-48
2024/04/02 11:03:18;;;;;;;;;;;21.40;52.80;;;;;;5065548;28;19938;-48
2024/04/02 11:05:44;;;;;;;;;;;21.40;52.80;;;;;;5065179;28;19927;-46
2024/04/02 11:08:10;;;;;;;;;;;21.40;52.80;;;;;;5065876;28;19913;-49
2024/04/02 11:10:36;;;;;;;;;;;21.40;52.80;;;;;;5080089;28;20447;-48
2024/04/02 11:13:02;;;;;;;;;;;21.40;52.80;;;;;;5080224;28;19912;-49
2024/04/02 11:15:27;;;;;;;;;;;21.40;52.90;;;;;;5084395;28;19978;-46
2024/04/02 11:17:53;;;;;;;;;;;21.40;52.90;;;;;;5083153;28;19946;-47
2024/04/02 11:20:19;;;;;;;;;;;21.40;52.90;;;;;;5083343;28;19908;-46
2024/04/02 11:25:29;;;;;;;;;;;21.40;52.90;;;;;;5078432;28;19919;-49
2024/04/02 11:28:04;;;;;;;;;;;21.40;52.90;;;;;;5078385;28;19968;-46
2024/04/02 11:30:30;;;;;;;;;;;21.40;52.90;;;;;;5075065;28;19967;-47
2024/04/02 11:32:56;;;;;;;;;;;21.40;52.90;;;;;;5071716;28;19908;-47
2024/04/02 11:35:22;;;;;;;;;;;21.40;52.90;;;;;;5079461;28;19909;-47
2024/04/02 11:37:48;;;;;;;;;;;21.40;52.90;;;;;;5065498;28;19908;-49
2024/04/02 11:40:17;;;;;;;;;;;21.40;53.00;;;;;;5069918;28;19913;-47
2024/04/02 11:42:43;;;;;;;;;;;21.40;53.00;;;;;;5065355;28;19927;-50
2024/04/02 11:45:09;;;;;;;;;;;21.40;52.90;;;;;;5065289;28;19920;-46
2024/04/02 11:47:35;;;;;;;;;;;21.40;53.00;;;;;;5066744;28;19918;-50
2024/04/02 11:50:01;;;;;;;;;;;21.40;52.90;;;;;;5069194;28;20528;-50
2024/04/02 11:52:27;;;;;;;;;;;21.30;52.90;;;;;;5072288;28;19942;-50
2024/04/02 11:54:53;;;;;;;;;;;21.30;52.90;;;;;;5069511;28;19913;-49
2024/04/02 12:00:19;;;;;;;;;;;21.30;52.90;;;;;;5071130;28;20372;-52
2024/04/02 12:02:46;;;;;;;;;;;21.40;53.00;;;;;;5077621;28;19938;-50
2024/04/02 12:05:12;;;;;;;;;;;21.30;52.90;;;;;;5075401;28;19920;-45
2024/04/02 12:07:38;;;;;;;;;;;21.40;53.00;;;;;;5072720;28;19917;-47
2024/04/02 12:10:04;;;;;;;;;;;21.30;53.00;;;;;;5074416;28;20242;-45
2024/04/02 12:12:30;;;;;;;;;;;21.30;53.00;;;;;;5067214;28;19923;-51
2024/04/02 12:14:56;;;;;;;;;;;21.30;53.00;;;;;;5070242;28;19919;-46
2024/04/02 12:17:22;;;;;;;;;;;21.30;53.50;;;;;;5072006;28;19909;-48
2024/04/02 12:19:49;;;;;;;;;;;21.30;53.00;;;;;;5072927;28;19935;-52
2024/04/02 12:22:15;;;;;;;;;;;21.30;53.00;;;;;;5073032;28;19913;-46
2024/04/02 12:24:41;;;;;;;;;;;21.30;53.00;;;;;;5070693;28;20324;-49
2024/04/02 12:27:06;;;;;;;;;;;21.30;53.60;;;;;;5081991;28;20389;-48
2024/04/02 12:29:33;;;;;;;;;;;21.30;53.00;;;;;;5064010;28;19913;-50
2024/04/02 12:31:59;;;;;;;;;;;21.30;53.00;;;;;;5071551;28;19913;-52
2024/04/02 12:34:26;;;;;;;;;;;21.30;53.00;;;;;;5071818;28;19927;-51
2024/04/02 12:36:52;;;;;;;;;;;21.30;53.00;;;;;;5074404;28;19912;-50
2024/04/02 12:39:18;;;;;;;;;;;21.30;53.10;;;;;;5078675;28;19995;-46
2024/04/02 12:41:44;;;;;;;;;;;21.30;53.00;;;;;;5072097;28;19924;-47
2024/04/02 12:44:10;;;;;;;;;;;21.30;53.00;;;;;;5071493;28;19921;-47
2024/04/02 12:46:36;;;;;;;;;;;21.30;53.00;;;;;;5072488;28;19916;-49
2024/04/02 12:49:05;;;;;;;;;;;21.30;53.00;;;;;;5077549;28;20304;-48
2024/04/02 12:51:31;;;;;;;;;;;21.30;53.00;;;;;;5072101;28;19923;-44
2024/04/02 12:53:57;;;;;;;;;;;21.30;53.10;;;;;;5072594;28;19908;-46
2024/04/02 12:56:23;;;;;;;;;;;21.30;53.00;;;;;;5079284;28;19919;-49
2024/04/02 12:58:52;;;;;;;;;;;21.30;53.00;;;;;;5078969;28;19912;-49
2024/04/02 13:01:18;;;;;;;;;;;21.30;53.00;;;;;;5080909;28;19908;-48
2024/04/02 13:03:44;;;;;;;;;;;21.30;53.00;;;;;;5063884;28;19928;-51
2024/04/02 13:06:10;;;;;;;;;;;21.30;53.00;;;;;;5071083;28;19982;-48
2024/04/02 13:08:36;;;;;;;;;;;21.30;53.00;;;;;;5074366;28;20358;-45
2024/04/02 13:11:02;;;;;;;;;;;21.30;53.00;;;;;;5075866;28;19913;-47
2024/04/02 13:13:28;;;;;;;;;;;21.30;53.00;;;;;;5071587;28;19912;-44
2024/04/02 13:15:54;;;;;;;;;;;21.30;53.00;;;;;;5068259;28;19931;-48
2024/04/02 13:18:20;;;;;;;;;;;21.30;53.00;;;;;;5072956;28;19994;-51
2024/04/02 13:20:46;;;;;;;;;;;21.30;53.00;;;;;;5070736;28;19920;-47
2024/04/02 13:23:12;;;;;;;;;;;21.30;53.00;;;;;;5065483;28;19916;-45
2024/04/02 13:25:43;;;;;;;;;;;21.30;53.00;;;;;;5074011;28;19960;-49
2024/04/02 13:28:09;;;;;;;;;;;21.30;53.60;;;;;;5074463;28;20246;-47
2024/04/02 13:30:35;;;;;;;;;;;21.30;53.00;;;;;;5080453;28;20007;-45
2024/04/02 13:33:02;;;;;;;;;;;21.30;53.10;;;;;;5072853;28;20317;-47
2024/04/02 13:35:28;;;;;;;;;;;21.30;53.10;;;;;;5077531;28;19919;-48
2024/04/02 13:37:54;;;;;;;;;;;21.30;53.10;;;;;;5071307;28;19909;-49
2024/04/02 13:40:19;;;;;;;;;;;21.30;53.10;;;;;;5076282;28;19912;-44
2024/04/02 13:42:45;;;;;;;;;;;21.30;53.00;;;;;;5071982;28;20387;-48
2024/04/02 13:45:11;;;;;;;;;;;21.30;53.00;;;;;;5071127;28;19921;-47
2024/04/02 13:47:37;;;;;;;;;;;21.30;53.10;;;;;;5071037;28;19917;-45
2024/04/02 13:50:03;;;;;;;;;;;21.30;53.10;;;;;;5069631;28;19915;-46
2024/04/02 13:52:30;;;;;;;;;;;21.30;53.10;;;;;;5073968;28;19912;-47
2024/04/02 13:54:55;;;;;;;;;;;21.30;53.10;;;;;;5072824;28;19913;-46
2024/04/02 13:57:21;;;;;;;;;;;21.30;53.10;;;;;;5078810;28;20042;-49
2024/04/02 13:59:47;;;;;;;;;;;21.30;53.10;;;;;;5072177;28;19967;-47
2024/04/02 14:02:13;;;;;;;;;;;21.30;53.10;;;;;;5080580;28;19923;-48
2024/04/02 14:04:45;;;;;;;;;;;21.30;53.10;;;;;;5080094;28;19917;-49
2024/04/02 14:07:11;;;;;;;;;;;21.30;53.20;;;;;;5074188;28;19919;-48
2024/04/02 14:09:37;;;;;;;;;;;21.30;53.10;;;;;;5070731;28;19916;-47
2024/04/02 14:12:03;;;;;;;;;;;21.40;53.10;;;;;;5069790;28;19934;-45
2024/04/02 14:14:30;;;;;;;;;;;21.40;53.10;;;;;;5073057;28;19916;-49
2024/04/02 14:16:55;;;;;;;;;;;21.40;53.10;;;;;;5080682;28;19919;-47